»·PEaware :: ACA465 CYOW-CYYZ

ACA465 :: CYOW-CYYZ

FLIGHT INFORMATION

Flight Status: Arrived
Operator:
Air Canada
More flights by this operator :: More flights under this callsign
Pilot: Rafael F. (17538)
Aircraft: BOEING 737-800
(B738)
More flights by this aircraft type
Origin: CYOW Ottawa/Macdonald-Cartier Intl
Canada
Destination: CYYZ Toronto/Pearson Intl
Canada
More flights between these airports :: More routes between these airports
Route: TUKIR VIBLI3
File this flight plan on PilotEdge
Remarks: RMK / SIMBRIEF
Altitude:
(Current/Filed)
26,000ft
Speed:
(Current/Filed)
448kts
Departed: 22-Apr-19 07:29 PM
Arrived: 22-Apr-19 08:16 PM
Distance/Time
Traveled:
196nm/0:47
Distance/Time
To Go:
Arrived

Flight Plot

Page will automatically refresh every two minutes.

Flight plan parsing failed; only flown route is shown


Map Options




Map Legend


Flown Route
Filed Route
Departure Airport
Arrival Airport
Navaid (VOR, NDB)
Fix

Horizontal Profiles

Position Reports

Time Latitude Longitude Heading Altitude Ground
Speed
22-Apr-19 19:07 45.320511 -75.665686 36 373ft 0kts
22-Apr-19 19:08 45.320511 -75.665686 36 373ft 0kts
22-Apr-19 19:09 45.320511 -75.665686 36 373ft 0kts
22-Apr-19 19:10 45.320511 -75.665686 36 373ft 0kts
22-Apr-19 19:11 45.320511 -75.665686 36 373ft 0kts
22-Apr-19 19:12 45.320511 -75.665686 36 373ft 0kts
22-Apr-19 19:13 45.320511 -75.665686 36 373ft 0kts
22-Apr-19 19:14 45.320511 -75.665686 36 373ft 0kts
22-Apr-19 19:15 45.320511 -75.665686 36 373ft 0kts
22-Apr-19 19:16 45.320511 -75.665686 36 373ft 0kts
22-Apr-19 19:17 45.320511 -75.665686 36 373ft 0kts
22-Apr-19 19:18 45.320511 -75.665686 36 373ft 0kts
22-Apr-19 19:19 45.320511 -75.665686 36 373ft 0kts
22-Apr-19 19:20 45.320423 -75.665786 39 373ft 2kts
22-Apr-19 19:21 45.320029 -75.666421 79 375ft 2kts
22-Apr-19 19:22 45.320188 -75.667160 125 375ft 0kts
22-Apr-19 19:23 45.320202 -75.667187 126 375ft 0kts
22-Apr-19 19:24 45.320202 -75.667187 126 375ft 0kts
22-Apr-19 19:25 45.320044 -75.666926 131 375ft 8kts
22-Apr-19 19:26 45.316615 -75.661508 125 368ft 30kts
22-Apr-19 19:27 45.311201 -75.655536 290 361ft 12kts
22-Apr-19 19:28 45.315845 -75.664612 306 371ft 123kts
22-Apr-19 19:29 45.319146 -75.722995 262 2846ft 165kts
22-Apr-19 19:30 45.310945 -75.810424 260 4855ft 242kts
22-Apr-19 19:31 45.295300 -75.926025 259 8985ft 266kts
22-Apr-19 19:32 45.276747 -76.060002 259 13145ft 300kts
22-Apr-19 19:33 45.259423 -76.183760 259 16701ft 317kts
22-Apr-19 19:34 45.232374 -76.306682 248 19906ft 333kts
22-Apr-19 19:35 45.195596 -76.429289 248 22849ft 345kts
22-Apr-19 19:36 45.157292 -76.556545 248 25581ft 352kts
22-Apr-19 19:37 45.117062 -76.689664 248 25725ft 374kts
22-Apr-19 19:38 45.075810 -76.825037 248 25725ft 374kts
22-Apr-19 19:39 45.034455 -76.960205 248 25725ft 375kts
22-Apr-19 19:40 44.992601 -77.095088 248 25724ft 376kts
22-Apr-19 19:41 44.950977 -77.230148 248 25722ft 376kts
22-Apr-19 19:42 44.909049 -77.365505 248 25726ft 376kts
22-Apr-19 19:43 44.867102 -77.500222 249 25725ft 375kts
22-Apr-19 19:44 44.825024 -77.634692 249 25731ft 375kts
22-Apr-19 19:45 44.783051 -77.767762 248 25739ft 374kts
22-Apr-19 19:46 44.739292 -77.892931 243 25738ft 376kts
22-Apr-19 19:47 44.686027 -78.021335 243 25736ft 379kts
22-Apr-19 19:48 44.632837 -78.149187 243 25737ft 379kts
22-Apr-19 19:49 44.580077 -78.275507 243 25738ft 371kts
22-Apr-19 19:50 44.527788 -78.400191 243 25745ft 371kts
22-Apr-19 19:51 44.476092 -78.522821 244 24469ft 357kts
22-Apr-19 19:52 44.426670 -78.639544 244 22254ft 342kts
22-Apr-19 19:53 44.379092 -78.751470 243 20136ft 352kts
22-Apr-19 19:54 44.329597 -78.867194 243 17998ft 336kts
22-Apr-19 19:55 44.282132 -78.977848 243 15796ft 328kts
22-Apr-19 19:56 44.219897 -79.067363 210 13712ft 338kts
22-Apr-19 19:57 44.132197 -79.113353 205 11742ft 329kts
22-Apr-19 19:58 44.050887 -79.154495 205 10307ft 331kts
22-Apr-19 19:59 43.985934 -79.233621 246 7665ft 308kts
22-Apr-19 20:00 43.965196 -79.329288 264 8789ft 248kts
22-Apr-19 20:01 43.933075 -79.409113 221 8844ft 278kts
22-Apr-19 20:02 43.863461 -79.451193 213 6493ft 264kts
22-Apr-19 20:03 43.796440 -79.497505 212 4070ft 257kts
22-Apr-19 20:04 43.728537 -79.517620 173 4562ft 249kts
22-Apr-19 20:05 43.674913 -79.457186 134 5587ft 338kts
22-Apr-19 20:06 43.612968 -79.381483 138 5292ft 260kts
22-Apr-19 20:07 43.556838 -79.311907 143 4833ft 277kts
22-Apr-19 20:08 43.505156 -79.343320 263 2837ft 237kts
22-Apr-19 20:09 43.524885 -79.411305 312 2704ft 172kts
22-Apr-19 20:10 43.554940 -79.462560 313 2964ft 182kts
22-Apr-19 20:11 43.591947 -79.511644 316 2314ft 169kts
22-Apr-19 20:12 43.624056 -79.552728 315 2098ft 148kts
22-Apr-19 20:13 43.645928 -79.582308 315 1212ft 130kts
22-Apr-19 20:14 43.664363 -79.605994 314 800ft 124kts
22-Apr-19 20:15 43.681002 -79.627109 338 565ft 35kts
22-Apr-19 20:16 43.684013 -79.623690 351 567ft 14kts
22-Apr-19 20:17 43.684363 -79.623779 348 567ft 0kts
22-Apr-19 20:18 43.684363 -79.623779 348 567ft 0kts
22-Apr-19 20:19 43.684363 -79.623779 348 567ft 0kts
22-Apr-19 20:20 43.684363 -79.623779 348 567ft 0kts

Navigation Log

Ident Type
Flight plan parsing failed, navigation log unavailable